createdAt,value
2018-07-22T00:00:09.740Z,66.21
2018-07-22T00:02:38.370Z,66.14
2018-07-22T00:05:07.087Z,66.14
2018-07-22T00:07:35.689Z,66.04
2018-07-22T00:10:04.062Z,66.21
2018-07-22T00:12:32.567Z,66.92
2018-07-22T00:15:00.885Z,65.24
2018-07-22T00:17:29.164Z,64.72
2018-07-22T00:19:57.417Z,64.79
2018-07-22T00:22:25.804Z,66.87
2018-07-22T00:24:54.063Z,65.54
2018-07-22T00:27:22.443Z,64.91
2018-07-22T00:29:52.061Z,65.15
2018-07-22T00:32:20.408Z,64.78
2018-07-22T00:34:48.641Z,62.32
2018-07-22T00:37:16.951Z,65.85
2018-07-22T00:39:45.231Z,67.36
2018-07-22T00:42:13.526Z,68.63
2018-07-22T00:44:41.777Z,67.28
2018-07-22T00:47:10.057Z,66.88
2018-07-22T00:49:38.475Z,65.93
2018-07-22T00:52:06.742Z,65.64
2018-07-22T00:54:35.016Z,65.33
2018-07-22T00:57:03.471Z,64.37
2018-07-22T00:59:31.792Z,66.42
2018-07-22T01:02:00.331Z,65.36
2018-07-22T01:04:28.735Z,65.43
2018-07-22T01:06:57.025Z,64.98
2018-07-22T01:09:25.380Z,64.57
2018-07-22T01:11:53.695Z,64.37
2018-07-22T01:14:21.969Z,65.18
2018-07-22T01:16:50.272Z,65.79
2018-07-22T01:19:18.590Z,67.33
2018-07-22T01:21:46.940Z,68.88
2018-07-22T01:24:15.234Z,69.29
2018-07-22T01:26:43.577Z,68.34
2018-07-22T01:29:11.872Z,67.50
2018-07-22T01:31:40.127Z,67.66
2018-07-22T01:34:08.465Z,65.81
2018-07-22T01:36:36.805Z,65.56
2018-07-22T01:39:07.667Z,64.88
2018-07-22T01:41:36.002Z,64.41
2018-07-22T01:44:04.352Z,64.45
2018-07-22T01:46:32.686Z,65.62
2018-07-22T01:49:00.993Z,64.61
2018-07-22T01:51:29.320Z,64.86
2018-07-22T01:53:57.781Z,64.85
2018-07-22T01:56:26.167Z,65.47
2018-07-22T01:58:54.399Z,65.30
2018-07-22T02:01:22.995Z,65.21
2018-07-22T02:03:51.361Z,65.31
2018-07-22T02:06:19.760Z,65.84
2018-07-22T02:08:48.166Z,66.60
2018-07-22T02:11:16.484Z,66.25
2018-07-22T02:13:45.262Z,66.71
2018-07-22T02:16:13.592Z,65.81
2018-07-22T02:18:42.069Z,65.67
2018-07-22T02:21:10.341Z,65.87
2018-07-22T02:23:41.896Z,67.07
2018-07-22T02:26:10.286Z,67.23
2018-07-22T02:28:38.518Z,66.04
2018-07-22T02:31:07.540Z,67.61
2018-07-22T02:33:35.840Z,68.83
2018-07-22T02:36:04.093Z,67.19
2018-07-22T02:38:32.493Z,66.46
2018-07-22T02:41:00.757Z,67.02
2018-07-22T02:43:29.061Z,68.03
2018-07-22T02:45:57.421Z,67.46
2018-07-22T02:48:25.772Z,67.64
2018-07-22T02:50:54.094Z,67.40
2018-07-22T02:53:22.545Z,67.02
2018-07-22T02:55:50.764Z,66.04
2018-07-22T02:58:19.161Z,66.32
2018-07-22T03:00:47.464Z,66.20
2018-07-22T03:03:15.755Z,67.39
2018-07-22T03:05:44.072Z,67.33
2018-07-22T03:08:12.407Z,67.44
2018-07-22T03:10:40.880Z,67.31
2018-07-22T03:13:09.198Z,67.47
2018-07-22T03:15:37.467Z,68.47
2018-07-22T03:18:06.062Z,67.66
2018-07-22T03:20:34.443Z,68.39
2018-07-22T03:23:02.753Z,69.30
2018-07-22T03:25:31.014Z,68.87
2018-07-22T03:27:59.288Z,69.77
2018-07-22T03:30:27.829Z,69.36
2018-07-22T03:32:56.134Z,68.39
2018-07-22T03:35:24.417Z,69.06
2018-07-22T03:37:52.790Z,68.87
2018-07-22T03:40:21.097Z,68.33
2018-07-22T03:42:49.656Z,67.30
2018-07-22T03:45:18.001Z,66.77
2018-07-22T03:47:46.362Z,67.38
2018-07-22T03:50:14.699Z,67.68
2018-07-22T03:52:43.059Z,68.84
2018-07-22T03:55:11.518Z,69.34
2018-07-22T03:57:40.376Z,68.47
2018-07-22T04:00:08.622Z,68.84
2018-07-22T04:02:36.941Z,68.86
2018-07-22T04:05:05.541Z,67.87
2018-07-22T04:07:34.053Z,67.17
2018-07-22T04:10:02.532Z,66.44
2018-07-22T04:12:31.041Z,66.05
2018-07-22T04:14:59.350Z,65.95
2018-07-22T04:17:27.721Z,65.17
2018-07-22T04:19:56.117Z,64.80
2018-07-22T04:22:24.420Z,64.16
2018-07-22T04:24:52.784Z,63.40
2018-07-22T04:27:21.096Z,62.96
2018-07-22T04:29:49.426Z,63.18
2018-07-22T04:32:17.651Z,63.58
2018-07-22T04:34:46.056Z,63.66
2018-07-22T04:37:14.319Z,63.36
2018-07-22T04:39:42.676Z,62.41
2018-07-22T04:42:11.051Z,61.76
2018-07-22T04:44:39.349Z,63.03
2018-07-22T04:47:07.770Z,66.54
2018-07-22T04:49:36.022Z,66.27
2018-07-22T04:52:04.362Z,67.79
2018-07-22T04:54:32.706Z,68.44
2018-07-22T04:57:01.047Z,67.90
2018-07-22T04:59:29.424Z,68.08
2018-07-22T05:01:57.782Z,68.67
2018-07-22T05:04:26.248Z,69.53
2018-07-22T05:06:54.559Z,67.39
2018-07-22T05:09:22.883Z,67.40
2018-07-22T05:11:51.183Z,66.84
2018-07-22T05:14:19.451Z,66.50
2018-07-22T05:16:47.751Z,65.12
2018-07-22T05:19:16.112Z,65.39
2018-07-22T05:21:45.536Z,65.72
2018-07-22T05:24:14.205Z,65.12
2018-07-22T05:26:42.540Z,65.87
2018-07-22T05:29:15.313Z,65.71
2018-07-22T05:31:43.758Z,65.20
2018-07-22T05:34:12.197Z,63.87
2018-07-22T05:36:40.476Z,63.90
2018-07-22T05:39:10.732Z,63.54
2018-07-22T05:41:39.051Z,64.63
2018-07-22T05:44:07.536Z,63.82
2018-07-22T05:46:35.891Z,62.28
2018-07-22T05:49:04.666Z,60.93
2018-07-22T05:51:33.314Z,62.38
2018-07-22T05:54:01.773Z,60.38
2018-07-22T05:56:30.091Z,60.57
2018-07-22T05:58:58.460Z,59.55
2018-07-22T06:01:26.804Z,59.40
2018-07-22T06:03:55.174Z,59.81
2018-07-22T06:06:23.454Z,59.73
2018-07-22T06:08:51.901Z,59.46
2018-07-22T06:11:20.145Z,59.57
2018-07-22T06:13:48.465Z,60.65
2018-07-22T06:16:16.818Z,60.96
2018-07-22T06:18:45.192Z,60.18
2018-07-22T06:21:13.495Z,58.82
2018-07-22T06:23:41.837Z,59.27
2018-07-22T06:26:10.192Z,57.48
2018-07-22T06:28:38.507Z,59.34
2018-07-22T06:31:07.076Z,57.18
2018-07-22T06:33:35.603Z,55.87
2018-07-22T06:36:04.348Z,55.54
2018-07-22T06:38:32.910Z,54.18
2018-07-22T06:41:01.638Z,53.99
2018-07-22T06:43:30.100Z,54.56
2018-07-22T06:45:58.471Z,55.16
2018-07-22T06:48:26.816Z,56.45
2018-07-22T06:50:55.156Z,56.48
2018-07-22T06:53:23.407Z,54.94
2018-07-22T06:55:51.720Z,51.26
2018-07-22T06:58:20.068Z,52.61
2018-07-22T07:00:48.419Z,54.18
2018-07-22T07:03:16.752Z,55.91
2018-07-22T07:05:45.170Z,54.87
2018-07-22T07:08:13.719Z,54.42
2018-07-22T07:10:41.989Z,53.26
2018-07-22T07:13:10.436Z,54.72
2018-07-22T07:15:38.923Z,54.09
2018-07-22T07:18:07.256Z,55.62
2018-07-22T07:20:35.606Z,55.81
2018-07-22T07:23:03.869Z,52.54
2018-07-22T07:25:32.180Z,51.17
2018-07-22T07:28:00.593Z,51.53
2018-07-22T07:30:29.003Z,55.01
2018-07-22T07:32:57.409Z,55.97
2018-07-22T07:35:25.751Z,52.29
2018-07-22T07:37:53.980Z,52.62
2018-07-22T07:40:22.257Z,52.98
2018-07-22T07:42:50.532Z,54.65
2018-07-22T07:45:18.927Z,52.86
2018-07-22T07:47:47.227Z,53.18
2018-07-22T07:50:15.681Z,52.06
2018-07-22T07:52:43.958Z,56.22
2018-07-22T07:55:12.288Z,54.73
2018-07-22T07:57:40.835Z,54.28
2018-07-22T08:00:09.366Z,54.72
2018-07-22T08:02:37.823Z,53.62
2018-07-22T08:05:06.360Z,53.60
2018-07-22T08:07:34.803Z,51.42
2018-07-22T08:10:03.291Z,50.74
2018-07-22T08:12:31.731Z,50.33
2018-07-22T08:15:00.045Z,50.49
2018-07-22T08:17:28.551Z,50.75
2018-07-22T08:19:56.931Z,49.16
2018-07-22T08:22:25.437Z,51.12
2018-07-22T08:24:53.685Z,49.11
2018-07-22T08:27:22.151Z,49.34
2018-07-22T08:29:50.551Z,48.28
2018-07-22T08:32:18.963Z,47.79
2018-07-22T08:34:47.368Z,47.54
2018-07-22T08:37:15.710Z,49.45
2018-07-22T08:39:44.139Z,49.61
2018-07-22T08:42:12.414Z,49.13
2018-07-22T08:44:40.766Z,52.82
2018-07-22T08:47:09.078Z,50.23
2018-07-22T08:49:37.437Z,49.83
2018-07-22T08:52:05.712Z,50.02
2018-07-22T08:54:34.070Z,49.04
2018-07-22T08:57:02.502Z,48.90
2018-07-22T08:59:30.946Z,51.17
2018-07-22T09:01:59.531Z,50.28
2018-07-22T09:04:28.124Z,50.47
2018-07-22T09:06:56.689Z,47.93
2018-07-22T09:09:25.170Z,45.84
2018-07-22T09:11:53.582Z,45.83
2018-07-22T09:14:21.830Z,45.21
2018-07-22T09:16:50.239Z,45.87
2018-07-22T09:19:18.537Z,44.59
2018-07-22T09:21:46.771Z,41.41
2018-07-22T09:24:15.083Z,43.10
2018-07-22T09:26:43.353Z,44.07
2018-07-22T09:29:11.736Z,45.29
2018-07-22T09:31:40.024Z,43.36
2018-07-22T09:34:08.270Z,41.85
2018-07-22T09:36:36.649Z,42.69
2018-07-22T09:39:08.539Z,40.82
2018-07-22T09:41:36.880Z,38.55
2018-07-22T09:44:05.185Z,38.27
2018-07-22T09:46:33.507Z,36.67
2018-07-22T09:49:01.916Z,36.73
2018-07-22T09:51:30.317Z,39.21
2018-07-22T09:53:59.701Z,38.16
2018-07-22T09:56:28.031Z,37.76
2018-07-22T09:58:56.556Z,38.24
2018-07-22T10:01:24.935Z,39.77
2018-07-22T10:03:56.845Z,37.79
2018-07-22T10:06:25.290Z,38.73
2018-07-22T10:08:58.761Z,36.32
2018-07-22T10:11:27.010Z,36.72
2018-07-22T10:13:55.306Z,35.13
2018-07-22T10:16:23.724Z,36.91
2018-07-22T10:18:52.000Z,37.95
2018-07-22T10:21:20.260Z,34.89
2018-07-22T10:23:48.588Z,36.39
2018-07-22T10:26:16.864Z,37.28
2018-07-22T10:28:49.285Z,33.19
2018-07-22T10:31:18.060Z,35.20
2018-07-22T10:33:46.234Z,34.12
2018-07-22T10:36:14.537Z,34.94
2018-07-22T10:38:42.830Z,34.39
2018-07-22T10:41:11.160Z,33.04
2018-07-22T10:43:39.446Z,34.90
2018-07-22T10:46:07.731Z,36.45
2018-07-22T10:48:35.930Z,35.65
2018-07-22T10:51:04.288Z,35.80
2018-07-22T10:53:32.492Z,34.48
2018-07-22T10:56:00.799Z,32.49
2018-07-22T10:58:29.107Z,31.84
2018-07-22T11:00:57.367Z,34.96
2018-07-22T11:03:25.693Z,37.16
2018-07-22T11:05:53.946Z,36.41
2018-07-22T11:08:22.193Z,35.59
2018-07-22T11:10:50.513Z,33.90
2018-07-22T11:13:18.756Z,34.23
2018-07-22T11:15:46.984Z,33.27
2018-07-22T11:18:15.281Z,32.49
2018-07-22T11:20:43.476Z,31.49
2018-07-22T11:23:11.805Z,31.40
2018-07-22T11:25:40.274Z,32.17
2018-07-22T11:28:08.518Z,32.91
2018-07-22T11:30:37.114Z,31.96
2018-07-22T11:33:05.366Z,33.21
2018-07-22T11:35:33.854Z,33.17
2018-07-22T11:38:02.166Z,33.86
2018-07-22T11:40:30.560Z,34.87
2018-07-22T11:42:59.005Z,37.31
2018-07-22T11:45:27.310Z,37.49
2018-07-22T11:47:55.730Z,39.59
2018-07-22T11:50:24.036Z,38.59
2018-07-22T11:52:52.371Z,39.59
2018-07-22T11:55:20.567Z,41.17
2018-07-22T11:57:48.947Z,39.37
2018-07-22T12:00:17.401Z,39.76
2018-07-22T12:02:45.655Z,39.59
2018-07-22T12:05:14.049Z,41.20
2018-07-22T12:07:43.068Z,39.90
2018-07-22T12:10:11.455Z,40.00
2018-07-22T12:12:39.946Z,39.08
2018-07-22T12:15:08.235Z,39.76
2018-07-22T12:17:36.567Z,37.61
2018-07-22T12:20:04.901Z,40.40
2018-07-22T12:22:33.183Z,40.20
2018-07-22T12:25:01.425Z,40.29
2018-07-22T12:27:29.766Z,39.71
2018-07-22T12:29:58.095Z,41.12
2018-07-22T12:32:26.645Z,40.27
2018-07-22T12:34:54.916Z,41.04
2018-07-22T12:37:23.149Z,40.38
2018-07-22T12:39:51.527Z,38.50
2018-07-22T12:42:19.804Z,39.17
2018-07-22T12:44:48.119Z,38.69
2018-07-22T12:47:16.315Z,36.62
2018-07-22T12:49:44.608Z,35.59
2018-07-22T12:52:12.819Z,36.73
2018-07-22T12:54:41.085Z,36.09
2018-07-22T12:57:09.280Z,36.12
2018-07-22T12:59:37.531Z,34.62
2018-07-22T13:02:05.770Z,33.49
2018-07-22T13:04:34.046Z,33.68
2018-07-22T13:07:02.271Z,29.71
2018-07-22T13:09:30.547Z,27.65
2018-07-22T13:11:58.856Z,30.06
2018-07-22T13:14:27.103Z,32.51
2018-07-22T13:16:55.302Z,33.75
2018-07-22T13:19:23.555Z,33.62
2018-07-22T13:21:51.871Z,34.74
2018-07-22T13:24:20.290Z,35.33
2018-07-22T13:26:48.620Z,35.74
2018-07-22T13:29:17.004Z,38.12
2018-07-22T13:31:45.244Z,37.98
2018-07-22T13:34:13.485Z,39.38
2018-07-22T13:36:41.839Z,42.67
2018-07-22T13:39:11.656Z,48.37
2018-07-22T13:41:40.493Z,49.14
2018-07-22T13:44:08.788Z,53.25
2018-07-22T13:46:37.509Z,57.84
2018-07-22T13:49:05.711Z,63.32
2018-07-22T13:51:33.949Z,72.58
2018-07-22T13:54:02.235Z,100.00
2018-07-22T13:56:30.483Z,100.00
2018-07-22T13:58:58.809Z,100.00
2018-07-22T14:01:27.234Z,100.00
2018-07-22T14:03:55.478Z,100.00
2018-07-22T14:06:23.827Z,100.00
2018-07-22T14:08:52.104Z,100.00
2018-07-22T14:11:20.515Z,100.00
2018-07-22T14:13:48.881Z,100.00
2018-07-22T14:16:17.196Z,100.00
2018-07-22T14:18:45.433Z,100.00
2018-07-22T14:21:13.807Z,100.00
2018-07-22T14:23:42.218Z,100.00
2018-07-22T14:26:10.540Z,100.00
2018-07-22T14:28:38.764Z,100.00
2018-07-22T14:31:07.271Z,100.00
2018-07-22T14:33:35.668Z,100.00
2018-07-22T14:36:03.910Z,100.00
2018-07-22T14:38:32.105Z,100.00
2018-07-22T14:41:00.441Z,100.00
2018-07-22T14:43:28.505Z,100.00
2018-07-22T14:45:56.846Z,100.00
2018-07-22T14:48:25.069Z,100.00
2018-07-22T14:50:53.344Z,100.00
2018-07-22T14:55:49.950Z,100.00
2018-07-22T14:58:18.469Z,100.00
2018-07-22T15:00:46.739Z,100.00
2018-07-22T15:03:14.994Z,100.00
2018-07-22T15:05:43.299Z,100.00
2018-07-22T15:08:11.475Z,100.00
2018-07-22T15:10:39.955Z,100.00
2018-07-22T15:13:08.313Z,100.00
2018-07-22T15:15:36.681Z,100.00
2018-07-22T15:18:05.052Z,100.00
2018-07-22T15:20:33.351Z,100.00
2018-07-22T15:23:01.709Z,100.00
2018-07-22T15:25:30.067Z,100.00
2018-07-22T15:27:58.466Z,100.00
2018-07-22T15:30:26.764Z,100.00
2018-07-22T15:32:55.025Z,100.00
2018-07-22T15:35:23.407Z,100.00
2018-07-22T15:37:51.639Z,100.00
2018-07-22T15:40:19.849Z,100.00
2018-07-22T15:42:48.100Z,100.00
2018-07-22T15:45:16.366Z,100.00
2018-07-22T15:47:44.662Z,100.00
2018-07-22T15:50:12.947Z,100.00
2018-07-22T15:52:41.350Z,100.00
2018-07-22T15:55:10.512Z,100.00
2018-07-22T15:57:39.825Z,100.00
2018-07-22T16:00:08.870Z,100.00
2018-07-22T16:02:37.352Z,100.00
2018-07-22T16:05:05.757Z,100.00
2018-07-22T16:07:36.457Z,100.00
2018-07-22T16:10:04.810Z,100.00
2018-07-22T16:12:33.089Z,100.00
2018-07-22T16:15:01.450Z,100.00
2018-07-22T16:17:29.904Z,100.00
2018-07-22T16:19:58.376Z,100.00
2018-07-22T16:22:26.790Z,100.00
2018-07-22T16:24:55.063Z,100.00
2018-07-22T16:27:23.364Z,100.00
2018-07-22T16:29:51.639Z,100.00
2018-07-22T16:32:19.888Z,100.00
2018-07-22T16:34:48.262Z,100.00
2018-07-22T16:37:16.540Z,99.89
2018-07-22T16:39:45.092Z,99.52
2018-07-22T16:42:13.473Z,95.42
2018-07-22T16:44:41.764Z,92.75
2018-07-22T16:47:10.167Z,92.36
2018-07-22T16:49:38.401Z,95.55
2018-07-22T16:52:06.614Z,93.99
2018-07-22T16:54:34.914Z,94.10
2018-07-22T16:57:03.264Z,93.27
2018-07-22T16:59:31.616Z,95.30
2018-07-22T17:01:59.798Z,93.53
2018-07-22T17:04:28.048Z,99.79
2018-07-22T17:06:56.457Z,100.00
2018-07-22T17:09:24.815Z,100.00
2018-07-22T17:11:53.219Z,100.00
2018-07-22T17:14:21.916Z,100.00
2018-07-22T17:16:50.407Z,100.00
2018-07-22T17:19:18.807Z,100.00
2018-07-22T17:21:47.152Z,100.00
2018-07-22T17:24:15.535Z,100.00
2018-07-22T17:26:43.958Z,100.00
2018-07-22T17:29:12.208Z,100.00
2018-07-22T17:31:40.490Z,100.00
2018-07-22T17:34:08.828Z,100.00
2018-07-22T17:36:37.106Z,100.00
2018-07-22T17:39:08.052Z,100.00
2018-07-22T17:41:36.268Z,100.00
2018-07-22T17:44:04.590Z,100.00
2018-07-22T17:46:32.977Z,100.00
2018-07-22T17:49:01.265Z,100.00
2018-07-22T17:51:29.561Z,100.00
2018-07-22T17:53:57.796Z,100.00
2018-07-22T17:56:26.128Z,100.00
2018-07-22T17:58:54.375Z,100.00
2018-07-22T18:01:22.680Z,100.00
2018-07-22T18:03:51.040Z,100.00
2018-07-22T18:06:19.301Z,100.00
2018-07-22T18:08:47.580Z,100.00
2018-07-22T18:11:15.862Z,99.46
2018-07-22T18:13:44.129Z,100.00
2018-07-22T18:16:12.382Z,100.00
2018-07-22T18:18:40.600Z,100.00
2018-07-22T18:21:08.911Z,100.00
2018-07-22T18:23:37.249Z,100.00
2018-07-22T18:26:05.678Z,100.00
2018-07-22T18:28:33.981Z,100.00
2018-07-22T18:31:02.269Z,100.00
2018-07-22T18:33:30.658Z,100.00
2018-07-22T18:35:59.018Z,100.00
2018-07-22T18:38:27.339Z,100.00
2018-07-22T18:40:55.715Z,100.00
2018-07-22T18:43:24.083Z,100.00
2018-07-22T18:45:52.346Z,100.00
2018-07-22T18:48:20.735Z,100.00
2018-07-22T18:50:49.029Z,100.00
2018-07-22T18:53:17.353Z,100.00
2018-07-22T18:55:45.655Z,100.00
2018-07-22T18:58:14.025Z,100.00
2018-07-22T19:00:42.566Z,100.00
2018-07-22T19:03:10.968Z,100.00
2018-07-22T19:05:39.226Z,100.00
2018-07-22T19:08:07.555Z,100.00
2018-07-22T19:10:35.949Z,100.00
2018-07-22T19:13:04.362Z,100.00
2018-07-22T19:15:32.623Z,100.00
2018-07-22T19:18:01.148Z,100.00
2018-07-22T19:20:29.541Z,100.00
2018-07-22T19:22:58.006Z,100.00
2018-07-22T19:25:26.618Z,100.00
2018-07-22T19:27:54.979Z,100.00
2018-07-22T19:30:23.272Z,100.00
2018-07-22T19:32:51.451Z,100.00
2018-07-22T19:35:19.905Z,100.00
2018-07-22T19:37:48.100Z,100.00
2018-07-22T19:40:16.508Z,100.00
2018-07-22T19:42:44.736Z,100.00
2018-07-22T19:45:13.161Z,100.00
2018-07-22T19:47:41.381Z,100.00
2018-07-22T19:50:09.761Z,100.00
2018-07-22T19:52:38.111Z,100.00
2018-07-22T19:55:06.589Z,100.00
2018-07-22T19:57:35.093Z,100.00
2018-07-22T20:00:03.444Z,100.00
2018-07-22T20:02:31.758Z,100.00
2018-07-22T20:04:59.995Z,100.00
2018-07-22T20:07:28.288Z,100.00
2018-07-22T20:09:56.544Z,100.00
2018-07-22T20:12:24.896Z,100.00
2018-07-22T20:14:53.239Z,100.00
2018-07-22T20:17:21.621Z,100.00
2018-07-22T20:19:50.152Z,100.00
2018-07-22T20:22:18.540Z,100.00
2018-07-22T20:24:48.317Z,100.00
2018-07-22T20:27:16.566Z,100.00
2018-07-22T20:29:45.205Z,100.00
2018-07-22T20:32:14.522Z,100.00
2018-07-22T20:34:42.808Z,100.00
2018-07-22T20:37:11.152Z,100.00
2018-07-22T20:39:39.610Z,100.00
2018-07-22T20:42:08.033Z,100.00
2018-07-22T20:44:36.488Z,100.00
2018-07-22T20:47:04.868Z,100.00
2018-07-22T20:49:33.235Z,100.00
2018-07-22T20:52:01.739Z,100.00
2018-07-22T20:54:30.137Z,100.00
2018-07-22T20:56:58.466Z,100.00
2018-07-22T20:59:26.825Z,100.00
2018-07-22T21:01:55.257Z,100.00
2018-07-22T21:04:23.543Z,100.00
2018-07-22T21:06:51.896Z,100.00
2018-07-22T21:09:21.777Z,100.00
2018-07-22T21:13:01.370Z,100.00
2018-07-22T21:15:31.792Z,100.00
2018-07-22T21:18:00.460Z,100.00
2018-07-22T21:20:29.634Z,100.00
2018-07-22T21:22:58.289Z,100.00
2018-07-22T21:25:26.747Z,100.00
2018-07-22T21:27:55.264Z,100.00
2018-07-22T21:30:23.603Z,100.00
2018-07-22T21:32:51.832Z,100.00
2018-07-22T21:35:20.248Z,100.00
2018-07-22T21:37:49.084Z,100.00
2018-07-22T21:40:17.484Z,100.00
2018-07-22T21:42:45.754Z,100.00
2018-07-22T21:45:14.184Z,100.00
2018-07-22T21:47:42.560Z,100.00
2018-07-22T21:50:10.854Z,100.00
2018-07-22T21:52:39.363Z,100.00
2018-07-22T21:55:07.808Z,100.00
2018-07-22T21:57:36.493Z,100.00
2018-07-22T22:00:19.097Z,100.00
2018-07-22T22:02:47.654Z,100.00
2018-07-22T22:05:15.907Z,100.00
2018-07-22T22:07:44.254Z,100.00
2018-07-22T22:10:12.595Z,100.00
2018-07-22T22:12:40.985Z,100.00
2018-07-22T22:15:15.338Z,100.00
2018-07-22T22:17:44.644Z,100.00
2018-07-22T22:20:12.926Z,100.00
2018-07-22T22:22:41.471Z,100.00
2018-07-22T22:25:09.795Z,100.00
2018-07-22T22:27:38.075Z,100.00
2018-07-22T22:30:06.361Z,100.00
2018-07-22T22:32:34.773Z,100.00
2018-07-22T22:35:02.993Z,100.00
2018-07-22T22:37:31.349Z,100.00
2018-07-22T22:39:59.602Z,100.00
2018-07-22T22:42:27.953Z,100.00
2018-07-22T22:44:56.169Z,100.00
2018-07-22T22:47:24.439Z,100.00
2018-07-22T22:49:52.659Z,100.00
2018-07-22T22:52:20.971Z,100.00
2018-07-22T22:54:49.352Z,100.00
2018-07-22T22:57:17.605Z,100.00
2018-07-22T22:59:45.917Z,100.00
2018-07-22T23:02:14.187Z,100.00
2018-07-22T23:04:42.435Z,100.00
2018-07-22T23:07:10.871Z,100.00
2018-07-22T23:09:39.177Z,100.00
2018-07-22T23:12:07.385Z,100.00
2018-07-22T23:14:35.684Z,100.00
2018-07-22T23:17:03.968Z,100.00
2018-07-22T23:19:32.224Z,100.00
2018-07-22T23:22:00.626Z,100.00
2018-07-22T23:24:28.877Z,100.00
2018-07-22T23:26:57.138Z,100.00
2018-07-22T23:29:25.388Z,100.00
2018-07-22T23:31:53.835Z,100.00
2018-07-22T23:34:22.109Z,100.00
2018-07-22T23:36:50.330Z,100.00
2018-07-22T23:39:18.586Z,100.00
2018-07-22T23:41:46.863Z,100.00
2018-07-22T23:44:15.054Z,100.00
2018-07-22T23:46:43.364Z,100.00
2018-07-22T23:49:11.675Z,100.00
2018-07-22T23:51:39.925Z,100.00
2018-07-22T23:54:08.249Z,100.00
2018-07-22T23:56:36.536Z,100.00
2018-07-22T23:59:04.811Z,100.00
